createdAt,value
2018-07-19T00:00:17.988Z,17.41
2018-07-19T00:02:46.436Z,17.42
2018-07-19T00:05:14.817Z,17.31
2018-07-19T00:07:43.251Z,17.33
2018-07-19T00:10:11.655Z,17.28
2018-07-19T00:12:40.182Z,17.26
2018-07-19T00:15:08.657Z,17.16
2018-07-19T00:17:37.256Z,17.19
2018-07-19T00:20:06.528Z,17.09
2018-07-19T00:22:35.004Z,17.10
2018-07-19T00:25:03.420Z,17.08
2018-07-19T00:27:31.894Z,17.01
2018-07-19T00:30:00.279Z,17.03
2018-07-19T00:32:28.688Z,17.00
2018-07-19T00:34:57.167Z,16.86
2018-07-19T00:37:25.543Z,16.89
2018-07-19T00:39:53.955Z,16.80
2018-07-19T00:42:22.366Z,16.70
2018-07-19T00:44:50.884Z,16.73
2018-07-19T00:47:19.275Z,16.68
2018-07-19T00:49:47.654Z,16.64
2018-07-19T00:52:16.063Z,16.60
2018-07-19T00:54:44.521Z,16.58
2018-07-19T00:57:13.023Z,16.54
2018-07-19T00:59:41.510Z,16.52
2018-07-19T01:02:10.040Z,16.41
2018-07-19T01:04:38.455Z,16.35
2018-07-19T01:07:06.909Z,16.25
2018-07-19T01:09:35.309Z,16.26
2018-07-19T01:12:03.835Z,16.24
2018-07-19T01:14:32.318Z,16.20
2018-07-19T01:17:00.778Z,16.10
2018-07-19T01:19:29.233Z,16.01
2018-07-19T01:21:57.667Z,15.97
2018-07-19T01:24:26.091Z,15.77
2018-07-19T01:26:54.621Z,15.75
2018-07-19T01:29:23.005Z,15.71
2018-07-19T01:31:51.428Z,15.66
2018-07-19T01:34:19.938Z,15.61
2018-07-19T01:36:48.417Z,15.48
2018-07-19T01:39:16.862Z,15.45
2018-07-19T01:42:24.357Z,15.26
2018-07-19T01:44:52.761Z,15.02
2018-07-19T01:47:21.323Z,15.02
2018-07-19T01:49:49.697Z,15.08
2018-07-19T01:52:18.092Z,15.16
2018-07-19T01:54:46.508Z,15.09
2018-07-19T01:57:16.015Z,15.07
2018-07-19T01:59:45.037Z,15.03
2018-07-19T02:02:13.756Z,15.02
2018-07-19T02:04:42.411Z,15.02
2018-07-19T02:07:10.988Z,14.94
2018-07-19T02:09:39.538Z,14.97
2018-07-19T02:12:08.205Z,14.95
2018-07-19T02:14:36.637Z,14.91
2018-07-19T02:17:05.119Z,14.92
2018-07-19T02:19:33.567Z,14.90
2018-07-19T02:22:02.114Z,14.82
2018-07-19T02:24:30.565Z,14.80
2018-07-19T02:26:59.057Z,14.74
2018-07-19T02:29:27.531Z,14.68
2018-07-19T02:31:55.954Z,14.62
2018-07-19T02:34:24.450Z,14.57
2018-07-19T02:36:52.941Z,14.57
2018-07-19T02:39:21.368Z,14.53
2018-07-19T02:41:49.797Z,14.43
2018-07-19T02:44:18.249Z,14.27
2018-07-19T02:46:46.701Z,14.28
2018-07-19T02:49:15.109Z,14.35
2018-07-19T02:51:44.087Z,14.32
2018-07-19T02:54:12.773Z,14.28
2018-07-19T02:56:41.241Z,14.29
2018-07-19T02:59:09.739Z,14.14
2018-07-19T03:01:38.160Z,14.11
2018-07-19T03:04:06.635Z,14.11
2018-07-19T03:06:35.024Z,14.01
2018-07-19T03:09:03.613Z,13.96
2018-07-19T03:11:31.994Z,13.99
2018-07-19T03:14:00.430Z,13.93
2018-07-19T03:16:28.789Z,13.72
2018-07-19T03:18:57.225Z,13.80
2018-07-19T03:21:25.654Z,13.80
2018-07-19T03:23:54.296Z,13.85
2018-07-19T03:26:22.737Z,13.79
2018-07-19T03:28:51.155Z,13.75
2018-07-19T03:31:19.856Z,13.78
2018-07-19T03:33:48.277Z,13.78
2018-07-19T03:36:16.696Z,13.74
2018-07-19T03:38:45.078Z,13.74
2018-07-19T03:41:13.510Z,13.74
2018-07-19T03:43:41.936Z,13.65
2018-07-19T03:46:10.466Z,13.61
2018-07-19T03:48:38.858Z,13.54
2018-07-19T03:51:07.335Z,13.60
2018-07-19T03:53:35.883Z,13.42
2018-07-19T03:56:04.433Z,13.39
2018-07-19T03:58:32.820Z,13.46
2018-07-19T04:01:01.271Z,13.46
2018-07-19T04:03:29.656Z,13.51
2018-07-19T04:05:58.266Z,13.42
2018-07-19T04:08:26.757Z,13.46
2018-07-19T04:10:55.158Z,13.45
2018-07-19T04:13:23.514Z,13.41
2018-07-19T04:15:51.930Z,13.43
2018-07-19T04:18:20.417Z,13.48
2018-07-19T04:20:48.935Z,13.43
2018-07-19T04:23:17.420Z,13.54
2018-07-19T04:25:45.791Z,13.60
2018-07-19T04:28:14.211Z,13.64
2018-07-19T04:30:42.676Z,13.69
2018-07-19T04:33:11.110Z,13.69
2018-07-19T04:35:40.029Z,13.68
2018-07-19T04:38:08.433Z,13.78
2018-07-19T04:40:36.883Z,13.80
2018-07-19T04:43:05.403Z,13.85
2018-07-19T04:45:34.765Z,13.87
2018-07-19T04:48:03.208Z,13.93
2018-07-19T04:50:31.736Z,13.97
2018-07-19T04:53:00.220Z,14.04
2018-07-19T04:55:28.710Z,14.03
2018-07-19T04:57:57.199Z,14.10
2018-07-19T05:00:25.778Z,14.16
2018-07-19T05:02:54.214Z,14.23
2018-07-19T05:05:22.832Z,14.26
2018-07-19T05:07:51.236Z,14.31
2018-07-19T05:10:19.691Z,14.35
2018-07-19T05:12:48.151Z,14.43
2018-07-19T05:15:16.656Z,14.51
2018-07-19T05:17:44.990Z,14.57
2018-07-19T05:20:13.463Z,14.61
2018-07-19T05:22:41.881Z,14.69
2018-07-19T05:25:10.364Z,14.73
2018-07-19T05:27:38.751Z,14.88
2018-07-19T05:30:07.215Z,15.03
2018-07-19T05:32:35.615Z,15.15
2018-07-19T05:35:04.076Z,15.19
2018-07-19T05:37:32.506Z,15.25
2018-07-19T05:40:01.044Z,15.34
2018-07-19T05:42:29.593Z,15.40
2018-07-19T05:44:58.042Z,15.45
2018-07-19T05:47:26.555Z,15.54
2018-07-19T05:49:55.046Z,15.64
2018-07-19T05:52:23.545Z,16.07
2018-07-19T05:54:52.040Z,16.93
2018-07-19T05:57:20.734Z,17.88
2018-07-19T05:59:49.204Z,17.93
2018-07-19T06:02:17.613Z,18.50
2018-07-19T06:04:46.006Z,18.22
2018-07-19T06:07:14.402Z,18.81
2018-07-19T06:09:42.971Z,19.46
2018-07-19T06:12:11.258Z,19.88
2018-07-19T06:14:39.732Z,20.02
2018-07-19T06:17:08.142Z,20.19
2018-07-19T06:19:36.679Z,20.16
2018-07-19T06:22:05.048Z,19.72
2018-07-19T06:24:33.447Z,19.94
2018-07-19T06:27:01.928Z,20.04
2018-07-19T06:29:31.164Z,20.22
2018-07-19T06:31:59.737Z,20.38
2018-07-19T06:34:28.105Z,20.48
2018-07-19T06:36:56.520Z,20.49
2018-07-19T06:39:25.086Z,20.69
2018-07-19T06:41:53.467Z,20.53
2018-07-19T06:44:21.958Z,20.60
2018-07-19T06:46:50.449Z,20.76
2018-07-19T06:49:18.923Z,19.94
2018-07-19T06:51:47.287Z,20.67
2018-07-19T06:54:15.745Z,21.00
2018-07-19T06:56:44.148Z,21.45
2018-07-19T06:59:12.563Z,21.68
2018-07-19T07:01:40.972Z,21.15
2018-07-19T07:04:09.370Z,21.35
2018-07-19T07:06:37.805Z,21.28
2018-07-19T07:09:08.713Z,22.01
2018-07-19T07:11:37.185Z,22.11
2018-07-19T07:14:05.906Z,22.00
2018-07-19T07:16:34.358Z,21.85
2018-07-19T07:19:02.870Z,21.87
2018-07-19T07:21:31.621Z,22.05
2018-07-19T07:24:00.411Z,22.46
2018-07-19T07:26:28.973Z,22.43
2018-07-19T07:28:57.475Z,22.85
2018-07-19T07:31:25.992Z,22.58
2018-07-19T07:33:54.487Z,22.70
2018-07-19T07:36:22.975Z,23.15
2018-07-19T07:38:51.593Z,23.51
2018-07-19T07:41:19.923Z,22.67
2018-07-19T07:43:48.374Z,23.50
2018-07-19T07:46:17.158Z,23.14
2018-07-19T07:48:45.671Z,23.48
2018-07-19T07:51:14.168Z,23.82
2018-07-19T07:53:42.529Z,23.30
2018-07-19T07:56:11.070Z,23.64
2018-07-19T07:58:39.505Z,23.71
2018-07-19T08:01:08.016Z,23.84
2018-07-19T08:03:36.422Z,23.97
2018-07-19T08:06:04.872Z,23.90
2018-07-19T08:08:33.352Z,24.16
2018-07-19T08:11:01.807Z,23.87
2018-07-19T08:13:30.242Z,24.53
2018-07-19T08:15:58.689Z,24.80
2018-07-19T08:18:27.092Z,24.00
2018-07-19T08:20:55.593Z,24.33
2018-07-19T08:23:23.977Z,23.99
2018-07-19T08:25:52.356Z,24.04
2018-07-19T08:28:20.762Z,23.85
2018-07-19T08:30:49.327Z,23.78
2018-07-19T08:33:17.771Z,23.79
2018-07-19T08:35:46.278Z,23.93
2018-07-19T08:38:14.680Z,23.91
2018-07-19T08:40:43.098Z,23.87
2018-07-19T08:43:11.551Z,24.00
2018-07-19T08:45:40.026Z,24.03
2018-07-19T08:48:08.464Z,23.83
2018-07-19T08:50:37.033Z,23.85
2018-07-19T08:53:05.475Z,23.68
2018-07-19T08:55:33.843Z,23.72
2018-07-19T08:58:02.322Z,23.95
2018-07-19T09:00:30.719Z,24.02
2018-07-19T09:02:59.175Z,24.17
2018-07-19T09:05:27.622Z,24.08
2018-07-19T09:07:56.051Z,23.98
2018-07-19T09:10:24.441Z,24.05
2018-07-19T09:12:52.826Z,24.19
2018-07-19T09:15:21.209Z,23.99
2018-07-19T09:17:49.630Z,23.77
2018-07-19T09:20:18.016Z,23.71
2018-07-19T09:22:46.428Z,23.77
2018-07-19T09:25:14.796Z,23.83
2018-07-19T09:27:43.211Z,24.04
2018-07-19T09:30:11.610Z,24.02
2018-07-19T09:32:40.172Z,24.21
2018-07-19T09:35:08.545Z,24.07
2018-07-19T09:37:37.043Z,23.82
2018-07-19T09:40:05.636Z,23.92
2018-07-19T09:42:34.077Z,24.02
2018-07-19T09:45:02.526Z,24.26
2018-07-19T09:47:31.667Z,24.53
2018-07-19T09:50:00.191Z,24.62
2018-07-19T09:52:28.651Z,24.52
2018-07-19T09:54:59.141Z,24.36
2018-07-19T09:57:28.631Z,24.15
2018-07-19T09:59:57.132Z,23.84
2018-07-19T10:02:25.789Z,24.13
2018-07-19T10:04:54.345Z,24.33
2018-07-19T10:07:23.101Z,24.38
2018-07-19T10:09:51.552Z,24.48
2018-07-19T10:12:20.212Z,24.53
2018-07-19T10:14:49.118Z,24.79
2018-07-19T10:17:17.868Z,25.03
2018-07-19T10:19:46.332Z,25.17
2018-07-19T10:22:14.768Z,25.26
2018-07-19T10:24:43.201Z,25.27
2018-07-19T10:27:11.644Z,25.17
2018-07-19T10:29:40.163Z,24.93
2018-07-19T10:32:08.573Z,25.19
2018-07-19T10:34:36.909Z,25.21
2018-07-19T10:37:05.277Z,24.92
2018-07-19T10:39:33.685Z,25.03
2018-07-19T10:42:02.100Z,25.25
2018-07-19T10:44:30.496Z,25.36
2018-07-19T10:46:58.927Z,25.34
2018-07-19T10:49:27.356Z,25.31
2018-07-19T10:51:55.757Z,25.46
2018-07-19T10:54:24.148Z,25.48
2018-07-19T10:56:52.519Z,25.63
2018-07-19T10:59:20.929Z,25.74
2018-07-19T11:01:49.368Z,25.87
2018-07-19T11:04:17.805Z,25.92
2018-07-19T11:06:46.217Z,25.79
2018-07-19T11:09:14.631Z,25.70
2018-07-19T11:11:43.112Z,25.93
2018-07-19T11:14:11.987Z,25.89
2018-07-19T11:16:40.504Z,25.86
2018-07-19T11:19:08.931Z,25.99
2018-07-19T11:21:37.378Z,25.91
2018-07-19T11:24:06.061Z,25.66
2018-07-19T11:26:34.491Z,25.68
2018-07-19T11:29:03.559Z,25.90
2018-07-19T11:31:36.161Z,25.88
2018-07-19T11:34:04.995Z,26.11
2018-07-19T11:36:33.450Z,25.94
2018-07-19T11:39:01.821Z,26.03
2018-07-19T11:41:30.216Z,26.17
2018-07-19T11:43:58.652Z,25.98
2018-07-19T11:46:27.078Z,25.95
2018-07-19T11:48:55.501Z,26.14
2018-07-19T11:51:23.914Z,25.89
2018-07-19T11:53:52.310Z,25.94
2018-07-19T11:56:20.865Z,25.80
2018-07-19T11:58:49.365Z,25.62
2018-07-19T12:01:17.778Z,25.45
2018-07-19T12:03:46.157Z,25.24
2018-07-19T12:06:14.577Z,25.56
2018-07-19T12:08:42.978Z,25.75
2018-07-19T12:11:11.417Z,25.70
2018-07-19T12:13:39.997Z,25.80
2018-07-19T12:16:08.468Z,25.86
2018-07-19T12:18:36.884Z,25.66
2018-07-19T12:21:05.309Z,25.50
2018-07-19T12:23:33.697Z,25.64
2018-07-19T12:26:02.077Z,25.82
2018-07-19T12:28:30.531Z,25.69
2018-07-19T12:30:58.972Z,25.59
2018-07-19T12:33:27.419Z,25.85
2018-07-19T12:35:55.803Z,26.01
2018-07-19T12:38:24.168Z,25.81
2018-07-19T12:40:52.533Z,25.91
2018-07-19T12:43:21.270Z,26.13
2018-07-19T12:45:49.652Z,26.27
2018-07-19T12:48:18.086Z,26.13
2018-07-19T12:50:46.523Z,26.11
2018-07-19T12:53:15.050Z,26.03
2018-07-19T12:55:43.440Z,26.22
2018-07-19T12:58:11.894Z,26.26
2018-07-19T13:00:40.281Z,26.43
2018-07-19T13:03:08.792Z,26.15
2018-07-19T13:05:37.212Z,26.23
2018-07-19T13:08:05.694Z,26.04
2018-07-19T13:10:34.131Z,26.18
2018-07-19T13:13:02.549Z,26.39
2018-07-19T13:15:30.968Z,26.23
2018-07-19T13:17:59.339Z,26.08
2018-07-19T13:20:27.749Z,26.26
2018-07-19T13:22:56.126Z,25.55
2018-07-19T13:25:24.544Z,25.84
2018-07-19T13:27:52.991Z,25.94
2018-07-19T13:30:22.072Z,26.15
2018-07-19T13:32:51.188Z,26.22
2018-07-19T13:35:19.641Z,26.28
2018-07-19T13:37:48.006Z,26.40
2018-07-19T13:40:16.409Z,26.34
2018-07-19T13:42:44.904Z,26.46
2018-07-19T13:45:13.312Z,26.38
2018-07-19T13:47:41.689Z,26.42
2018-07-19T13:50:10.110Z,26.40
2018-07-19T13:52:49.701Z,26.11
2018-07-19T13:55:18.152Z,26.15
2018-07-19T13:57:46.548Z,26.18
2018-07-19T14:00:14.875Z,26.34
2018-07-19T14:02:43.345Z,26.41
2018-07-19T14:05:11.741Z,26.37
2018-07-19T14:07:40.125Z,26.10
2018-07-19T14:10:08.615Z,26.27
2018-07-19T14:12:37.009Z,26.21
2018-07-19T14:15:06.105Z,26.45
2018-07-19T14:17:34.481Z,26.52
2018-07-19T14:20:02.903Z,26.56
2018-07-19T14:22:31.268Z,26.46
2018-07-19T14:24:59.674Z,26.46
2018-07-19T14:27:28.142Z,26.50
2018-07-19T14:29:56.471Z,26.47
2018-07-19T14:32:24.840Z,26.53
2018-07-19T14:34:53.237Z,26.54
2018-07-19T14:37:21.717Z,26.47
2018-07-19T14:39:50.145Z,26.47
2018-07-19T14:42:18.550Z,26.56
2018-07-19T14:44:46.978Z,26.59
2018-07-19T14:47:15.440Z,26.64
2018-07-19T14:49:43.849Z,26.51
2018-07-19T14:52:12.283Z,26.59
2018-07-19T14:54:40.657Z,26.63
2018-07-19T14:57:09.040Z,26.62
2018-07-19T14:59:37.447Z,26.60
2018-07-19T15:02:05.971Z,26.32
2018-07-19T15:04:34.479Z,26.57
2018-07-19T15:07:02.937Z,26.39
2018-07-19T15:09:31.422Z,26.40
2018-07-19T15:11:59.809Z,26.16
2018-07-19T15:14:28.258Z,26.51
2018-07-19T15:16:56.650Z,26.59
2018-07-19T15:19:25.070Z,26.60
2018-07-19T15:21:53.444Z,26.67
2018-07-19T15:24:21.832Z,26.34
2018-07-19T15:26:50.239Z,26.16
2018-07-19T15:29:18.667Z,26.42
2018-07-19T15:31:47.118Z,26.38
2018-07-19T15:34:15.603Z,26.51
2018-07-19T15:36:44.027Z,26.67
2018-07-19T15:39:12.410Z,26.64
2018-07-19T15:41:40.880Z,26.50
2018-07-19T15:44:09.275Z,26.64
2018-07-19T15:46:37.736Z,26.62
2018-07-19T15:49:06.144Z,26.70
2018-07-19T15:51:34.558Z,26.64
2018-07-19T15:54:03.021Z,26.76
2018-07-19T15:56:31.433Z,26.83
2018-07-19T15:58:59.829Z,26.82
2018-07-19T16:01:28.204Z,26.82
2018-07-19T16:03:56.664Z,26.74
2018-07-19T16:06:25.049Z,26.66
2018-07-19T16:08:53.536Z,26.79
2018-07-19T16:11:22.000Z,26.74
2018-07-19T16:13:50.384Z,26.61
2018-07-19T16:16:18.790Z,26.59
2018-07-19T16:18:47.208Z,26.58
2018-07-19T16:21:15.689Z,26.61
2018-07-19T16:23:44.138Z,26.58
2018-07-19T16:26:12.600Z,26.60
2018-07-19T16:28:41.000Z,26.62
2018-07-19T16:31:09.669Z,26.49
2018-07-19T16:33:38.065Z,26.53
2018-07-19T16:36:06.526Z,26.46
2018-07-19T16:38:35.059Z,26.51
2018-07-19T16:41:03.495Z,26.46
2018-07-19T16:43:31.920Z,26.43
2018-07-19T16:46:00.389Z,26.47
2018-07-19T16:48:28.788Z,26.49
2018-07-19T16:50:57.274Z,26.41
2018-07-19T16:53:26.043Z,26.39
2018-07-19T16:55:54.508Z,26.36
2018-07-19T16:58:23.080Z,26.32
2018-07-19T17:00:51.464Z,26.24
2018-07-19T17:03:20.208Z,26.24
2018-07-19T17:05:48.661Z,26.21
2018-07-19T17:08:17.067Z,26.13
2018-07-19T17:10:45.653Z,26.14
2018-07-19T17:13:14.030Z,26.07
2018-07-19T17:15:42.476Z,25.96
2018-07-19T17:18:11.139Z,26.02
2018-07-19T17:20:39.832Z,25.96
2018-07-19T17:23:08.314Z,25.83
2018-07-19T17:25:36.784Z,25.71
2018-07-19T17:28:05.273Z,25.76
2018-07-19T17:30:33.664Z,25.77
2018-07-19T17:33:02.110Z,25.79
2018-07-19T17:35:30.448Z,25.75
2018-07-19T17:37:58.857Z,25.75
2018-07-19T17:40:27.355Z,25.68
2018-07-19T17:42:56.138Z,25.63
2018-07-19T17:45:24.545Z,25.64
2018-07-19T17:47:52.942Z,25.67
2018-07-19T17:50:21.362Z,25.61
2018-07-19T17:52:49.974Z,25.61
2018-07-19T17:55:18.380Z,25.60
2018-07-19T17:57:46.826Z,25.55
2018-07-19T18:00:15.245Z,25.46
2018-07-19T18:02:43.723Z,25.40
2018-07-19T18:05:12.099Z,25.41
2018-07-19T18:07:40.441Z,25.33
2018-07-19T18:10:08.885Z,25.27
2018-07-19T18:12:37.233Z,25.23
2018-07-19T18:15:05.817Z,25.23
2018-07-19T18:17:34.263Z,25.18
2018-07-19T18:20:02.669Z,25.08
2018-07-19T18:22:31.106Z,25.01
2018-07-19T18:24:59.523Z,24.99
2018-07-19T18:27:28.027Z,24.93
2018-07-19T18:29:58.356Z,24.88
2018-07-19T18:32:26.774Z,24.86
2018-07-19T18:34:55.257Z,24.81
2018-07-19T18:37:23.764Z,24.77
2018-07-19T18:39:52.199Z,24.72
2018-07-19T18:42:20.841Z,24.64
2018-07-19T18:44:49.295Z,24.58
2018-07-19T18:47:17.695Z,24.59
2018-07-19T18:49:46.136Z,24.54
2018-07-19T18:52:14.543Z,24.42
2018-07-19T18:54:42.987Z,24.41
2018-07-19T18:57:11.422Z,24.33
2018-07-19T18:59:39.868Z,24.26
2018-07-19T19:02:08.271Z,24.18
2018-07-19T19:04:36.680Z,24.17
2018-07-19T19:07:05.044Z,24.13
2018-07-19T19:09:33.446Z,24.04
2018-07-19T19:12:01.885Z,24.03
2018-07-19T19:14:30.324Z,23.97
2018-07-19T19:16:58.716Z,23.90
2018-07-19T19:19:27.132Z,23.82
2018-07-19T19:21:55.541Z,23.75
2018-07-19T19:24:23.912Z,23.74
2018-07-19T19:26:52.323Z,23.68
2018-07-19T19:29:20.804Z,23.59
2018-07-19T19:31:49.211Z,23.55
2018-07-19T19:34:17.646Z,23.49
2018-07-19T19:36:46.058Z,23.49
2018-07-19T19:39:14.631Z,23.42
2018-07-19T19:41:43.473Z,23.35
2018-07-19T19:44:12.424Z,23.30
2018-07-19T19:46:40.901Z,23.18
2018-07-19T19:49:09.325Z,23.18
2018-07-19T19:51:37.945Z,23.17
2018-07-19T19:54:06.481Z,23.11
2018-07-19T19:56:34.943Z,23.09
2018-07-19T19:59:03.623Z,22.99
2018-07-19T20:01:32.133Z,22.95
2018-07-19T20:04:00.592Z,22.90
2018-07-19T20:06:29.009Z,22.82
2018-07-19T20:08:57.444Z,22.73
2018-07-19T20:11:25.930Z,22.68
2018-07-19T20:13:54.500Z,22.53
2018-07-19T20:16:22.974Z,22.39
2018-07-19T20:18:51.510Z,22.29
2018-07-19T20:21:19.951Z,22.23
2018-07-19T20:23:48.394Z,22.20
2018-07-19T20:26:16.880Z,22.19
2018-07-19T20:28:45.301Z,22.15
2018-07-19T20:31:13.713Z,22.09
2018-07-19T20:33:42.083Z,21.96
2018-07-19T20:36:10.459Z,21.88
2018-07-19T20:38:38.889Z,21.82
2018-07-19T20:41:07.380Z,21.74
2018-07-19T20:43:35.869Z,21.68
2018-07-19T20:46:04.473Z,21.58
2018-07-19T20:48:32.920Z,21.54
2018-07-19T20:51:01.446Z,21.50
2018-07-19T20:53:29.973Z,21.42
2018-07-19T20:55:58.388Z,21.36
2018-07-19T20:58:26.781Z,21.27
2018-07-19T21:00:55.283Z,21.23
2018-07-19T21:03:23.701Z,21.16
2018-07-19T21:05:52.148Z,21.11
2018-07-19T21:08:20.521Z,21.05
2018-07-19T21:10:48.990Z,20.99
2018-07-19T21:13:17.531Z,20.95
2018-07-19T21:15:46.040Z,20.91
2018-07-19T21:18:14.536Z,20.87
2018-07-19T21:20:42.984Z,20.82
2018-07-19T21:23:11.426Z,20.72
2018-07-19T21:25:39.813Z,20.70
2018-07-19T21:28:08.234Z,20.72
2018-07-19T21:30:37.272Z,20.69
2018-07-19T21:33:06.670Z,20.60
2018-07-19T21:35:35.078Z,20.61
2018-07-19T21:38:03.644Z,20.61
2018-07-19T21:40:32.377Z,20.50
2018-07-19T21:43:01.572Z,20.36
2018-07-19T21:45:30.025Z,20.30
2018-07-19T21:47:58.462Z,20.29
2018-07-19T21:50:26.882Z,20.34
2018-07-19T21:52:55.276Z,20.38
2018-07-19T21:55:24.096Z,20.35
2018-07-19T21:57:52.579Z,20.34
2018-07-19T22:00:21.046Z,20.34
2018-07-19T22:02:49.435Z,20.32
2018-07-19T22:05:18.229Z,20.24
2018-07-19T22:07:46.681Z,20.10
2018-07-19T22:10:15.170Z,20.14
2018-07-19T22:12:43.652Z,20.12
2018-07-19T22:15:12.063Z,20.09
2018-07-19T22:17:40.547Z,19.97
2018-07-19T22:20:09.094Z,19.89
2018-07-19T22:22:38.903Z,19.80
2018-07-19T22:25:08.819Z,19.77
2018-07-19T22:27:37.411Z,19.77
2018-07-19T22:30:06.244Z,19.71
2018-07-19T22:32:34.653Z,19.68
2018-07-19T22:35:03.125Z,19.65
2018-07-19T22:37:31.532Z,19.74
2018-07-19T22:40:00.323Z,19.51
2018-07-19T22:42:28.954Z,19.38
2018-07-19T22:44:58.039Z,19.42
2018-07-19T22:47:26.889Z,19.43
2018-07-19T22:49:55.901Z,19.33
2018-07-19T22:52:24.856Z,19.31
2018-07-19T22:54:53.250Z,19.32
2018-07-19T22:57:22.196Z,19.29
2018-07-19T22:59:50.637Z,19.19
2018-07-19T23:02:19.580Z,19.13
2018-07-19T23:04:48.439Z,19.00
2018-07-19T23:07:16.858Z,18.75
2018-07-19T23:09:45.305Z,18.93
2018-07-19T23:12:14.036Z,18.89
2018-07-19T23:14:42.481Z,18.84
2018-07-19T23:17:11.001Z,18.85
2018-07-19T23:19:39.415Z,18.75
2018-07-19T23:22:07.957Z,18.63
2018-07-19T23:24:36.441Z,18.64
2018-07-19T23:27:05.129Z,18.60
2018-07-19T23:29:33.813Z,18.53
2018-07-19T23:32:02.937Z,18.45
2018-07-19T23:34:31.771Z,18.45
2018-07-19T23:37:04.149Z,18.44
2018-07-19T23:39:38.203Z,18.37
2018-07-19T23:42:13.860Z,18.33
2018-07-19T23:45:01.411Z,18.25
2018-07-19T23:47:33.310Z,18.06
2018-07-19T23:50:01.891Z,17.98
2018-07-19T23:52:30.304Z,17.91
2018-07-19T23:54:58.881Z,17.92
2018-07-19T23:57:27.275Z,17.90
2018-07-19T23:59:55.686Z,17.93
